createdAt,value
2019-02-06T00:05:18.109Z,2.18
2019-02-06T00:11:21.902Z,2.11
2019-02-06T00:23:21.738Z,2.00
2019-02-06T00:28:33.377Z,1.87
2019-02-06T00:33:44.575Z,1.88
2019-02-06T00:38:55.124Z,1.79
2019-02-06T00:50:56.445Z,1.64
2019-02-06T00:56:39.330Z,1.52
2019-02-06T01:08:49.565Z,1.46
2019-02-06T01:14:48.431Z,1.39
2019-02-06T01:33:28.932Z,1.12
2019-02-06T01:45:38.122Z,1.00
2019-02-06T01:57:16.719Z,0.90
2019-02-06T02:03:08.537Z,0.72
2019-02-06T02:08:21.451Z,0.71
2019-02-06T02:19:50.934Z,0.57
2019-02-06T02:31:08.584Z,0.58
2019-02-06T02:42:43.857Z,0.56
2019-02-06T02:48:08.968Z,0.41
2019-02-06T02:54:00.116Z,0.35
2019-02-06T03:00:00.939Z,0.32
2019-02-06T03:05:59.443Z,0.31
2019-02-06T03:11:58.768Z,0.35
2019-02-06T03:17:28.997Z,0.38
2019-02-06T03:23:35.948Z,0.23
2019-02-06T03:31:19.639Z,0.31
2019-02-06T03:50:08.418Z,0.13
2019-02-06T03:54:15.623Z,0.06
2019-02-06T03:59:44.592Z,0.06
2019-02-06T04:05:16.106Z,-0.17
2019-02-06T04:10:54.153Z,-0.23
2019-02-06T04:16:46.810Z,-0.09
2019-02-06T04:22:44.029Z,-0.20
2019-02-06T04:41:25.835Z,-0.28
2019-02-06T04:52:32.373Z,-0.32
2019-02-06T05:15:40.686Z,-0.38
2019-02-06T05:21:49.037Z,-0.33
2019-02-06T05:26:51.474Z,-0.36
2019-02-06T05:31:53.745Z,-0.43
2019-02-06T05:36:55.881Z,-0.40
2019-02-06T05:41:57.953Z,-0.33
2019-02-06T05:47:02.923Z,-0.33
2019-02-06T05:52:10.915Z,-0.35
2019-02-06T05:57:19.658Z,-0.33
2019-02-06T06:02:23.230Z,-0.30
2019-02-06T06:07:44.137Z,-0.28
2019-02-06T06:12:44.890Z,-0.39
2019-02-06T06:17:49.968Z,-0.38
2019-02-06T06:22:58.243Z,-0.33
2019-02-06T06:28:05.617Z,-0.37
2019-02-06T06:33:20.534Z,-0.38
2019-02-06T06:38:28.587Z,-0.41
2019-02-06T06:43:36.930Z,-0.43
2019-02-06T06:48:45.192Z,-0.39
2019-02-06T06:53:50.355Z,-0.25
2019-02-06T06:58:58.434Z,-0.27
2019-02-06T07:04:04.613Z,-0.26
2019-02-06T07:09:13.171Z,-0.29
2019-02-06T07:14:19.207Z,-0.25
2019-02-06T07:19:24.311Z,-0.21
2019-02-06T07:24:33.912Z,-0.24
2019-02-06T07:29:41.910Z,-0.18
2019-02-06T07:34:47.223Z,-0.09
2019-02-06T07:39:54.028Z,-0.06
2019-02-06T07:44:58.208Z,-0.06
2019-02-06T07:50:03.300Z,0.10
2019-02-06T07:55:07.362Z,0.15
2019-02-06T08:00:13.972Z,0.20
2019-02-06T08:05:18.321Z,0.22
2019-02-06T08:10:25.663Z,0.24
2019-02-06T08:15:35.416Z,0.24
2019-02-06T08:20:45.507Z,0.18
2019-02-06T08:25:52.469Z,0.15
2019-02-06T08:30:54.956Z,0.36
2019-02-06T08:35:57.254Z,0.22
2019-02-06T08:40:59.555Z,0.39
2019-02-06T08:46:06.807Z,0.42
2019-02-06T08:51:10.849Z,0.46
2019-02-06T08:56:16.182Z,0.57
2019-02-06T09:01:21.423Z,0.47
2019-02-06T09:06:24.090Z,0.48
2019-02-06T09:11:28.733Z,0.58
2019-02-06T09:16:31.478Z,0.43
2019-02-06T09:21:35.995Z,0.58
2019-02-06T09:26:42.600Z,0.81
2019-02-06T09:31:47.015Z,0.76
2019-02-06T09:36:53.381Z,0.62
2019-02-06T09:41:57.206Z,0.92
2019-02-06T09:46:59.405Z,0.87
2019-02-06T09:52:05.004Z,0.80
2019-02-06T09:57:11.294Z,0.93
2019-02-06T10:02:20.640Z,1.03
2019-02-06T10:07:24.499Z,1.12
2019-02-06T10:12:27.290Z,1.34
2019-02-06T10:17:29.508Z,1.31
2019-02-06T10:22:34.102Z,1.58
2019-02-06T10:27:41.680Z,1.67
2019-02-06T10:32:49.776Z,1.86
2019-02-06T10:37:54.306Z,1.82
2019-02-06T10:42:59.960Z,2.14
2019-02-06T10:48:05.686Z,2.20
2019-02-06T10:53:15.694Z,2.36
2019-02-06T10:58:21.566Z,2.54
2019-02-06T11:03:26.709Z,2.82
2019-02-06T11:08:32.852Z,3.03
2019-02-06T11:13:37.757Z,3.17
2019-02-06T11:18:44.525Z,3.22
2019-02-06T11:23:49.028Z,3.46
2019-02-06T11:28:58.243Z,3.50
2019-02-06T11:34:02.938Z,3.69
2019-02-06T11:39:11.950Z,3.64
2019-02-06T11:44:22.629Z,3.86
2019-02-06T11:49:34.412Z,4.04
2019-02-06T11:54:36.752Z,4.01
2019-02-06T11:59:40.275Z,4.19
2019-02-06T12:04:46.549Z,4.27
2019-02-06T12:09:48.741Z,4.32
2019-02-06T12:14:57.156Z,4.24
2019-02-06T12:20:01.479Z,4.50
2019-02-06T12:25:06.348Z,4.98
2019-02-06T12:30:14.071Z,5.02
2019-02-06T12:35:19.934Z,5.01
2019-02-06T12:40:27.217Z,5.28
2019-02-06T12:45:32.138Z,5.66
2019-02-06T12:50:36.446Z,5.43
2019-02-06T12:55:42.952Z,5.59
2019-02-06T13:00:45.282Z,5.85
2019-02-06T13:05:47.449Z,6.04
2019-02-06T13:10:49.576Z,5.97
2019-02-06T13:15:52.007Z,5.82
2019-02-06T13:20:54.115Z,5.65
2019-02-06T13:25:56.237Z,5.47
2019-02-06T13:30:58.488Z,5.47
2019-02-06T13:36:00.640Z,5.62
2019-02-06T13:41:02.879Z,5.66
2019-02-06T13:46:05.054Z,5.81
2019-02-06T13:51:17.589Z,5.96
2019-02-06T13:56:16.613Z,5.88
2019-02-06T14:01:26.207Z,5.85
2019-02-06T14:06:23.083Z,5.98
2019-02-06T14:11:29.185Z,5.98
2019-02-06T14:16:31.564Z,6.06
2019-02-06T14:21:33.812Z,6.10
2019-02-06T14:26:48.724Z,6.07
2019-02-06T14:32:37.213Z,6.14
2019-02-06T14:38:24.380Z,6.34
2019-02-06T14:43:43.378Z,6.37
2019-02-06T14:49:09.962Z,6.35
2019-02-06T14:54:50.994Z,7.26
2019-02-06T15:00:20.999Z,7.56
2019-02-06T15:05:37.126Z,6.46
2019-02-06T15:11:01.760Z,6.34
2019-02-06T15:16:29.936Z,6.10
2019-02-06T15:22:12.446Z,6.10
2019-02-06T15:28:02.588Z,5.98
2019-02-06T15:33:33.335Z,5.94
2019-02-06T15:38:58.334Z,5.92
2019-02-06T15:44:28.702Z,5.90
2019-02-06T15:49:59.523Z,5.81
2019-02-06T15:55:37.968Z,5.63
2019-02-06T16:01:20.655Z,5.54
2019-02-06T16:06:52.842Z,5.46
2019-02-06T16:12:39.874Z,5.44
2019-02-06T16:18:16.703Z,5.34
2019-02-06T16:24:05.481Z,5.12
2019-02-06T16:29:30.580Z,4.82
2019-02-06T16:35:19.913Z,4.70
2019-02-06T16:40:51.804Z,4.52
2019-02-06T16:46:35.754Z,4.38
2019-02-06T16:52:01.872Z,4.27
2019-02-06T16:57:39.569Z,4.39
2019-02-06T17:03:21.746Z,4.24
2019-02-06T17:09:01.818Z,3.96
2019-02-06T17:15:15.913Z,3.93
2019-02-06T17:20:58.543Z,3.78
2019-02-06T17:26:36.753Z,3.68
2019-02-06T17:32:10.793Z,3.67
2019-02-06T17:37:41.993Z,3.59
2019-02-06T17:43:23.354Z,3.75
2019-02-06T17:48:41.746Z,3.42
2019-02-06T17:54:05.820Z,3.33
2019-02-06T17:59:08.414Z,3.41
2019-02-06T18:04:23.229Z,3.49
2019-02-06T18:09:25.384Z,3.29
2019-02-06T18:14:27.882Z,3.28
2019-02-06T18:19:35.777Z,3.24
2019-02-06T18:24:37.800Z,3.26
2019-02-06T18:29:39.935Z,3.21
2019-02-06T18:34:46.386Z,3.25
2019-02-06T18:39:48.558Z,3.08
2019-02-06T18:44:50.767Z,3.07
2019-02-06T18:49:53.712Z,3.05
2019-02-06T18:54:57.577Z,2.97
2019-02-06T18:59:59.769Z,2.84
2019-02-06T19:05:04.056Z,2.81
2019-02-06T19:10:07.689Z,2.59
2019-02-06T19:15:10.516Z,2.63
2019-02-06T19:20:13.268Z,2.51
2019-02-06T19:25:15.358Z,2.36
2019-02-06T19:30:22.961Z,2.25
2019-02-06T19:35:27.207Z,2.17
2019-02-06T19:40:29.245Z,2.12
2019-02-06T19:45:38.026Z,2.11
2019-02-06T19:50:40.575Z,1.96
2019-02-06T19:55:42.762Z,1.94
2019-02-06T20:00:45.059Z,1.96
2019-02-06T20:05:49.372Z,1.88
2019-02-06T20:10:51.643Z,1.81
2019-02-06T20:16:19.799Z,1.79
2019-02-06T20:21:25.104Z,1.77
2019-02-06T20:26:41.181Z,1.71
2019-02-06T20:32:26.604Z,1.51
2019-02-06T20:49:54.460Z,1.50
2019-02-06T20:56:01.188Z,1.48
2019-02-06T21:01:16.688Z,1.34
2019-02-06T21:06:28.486Z,1.30
2019-02-06T21:22:48.947Z,1.37
2019-02-06T21:27:52.202Z,1.31
2019-02-06T21:32:54.688Z,1.29
2019-02-06T21:37:57.312Z,1.18
2019-02-06T21:42:59.622Z,1.18
2019-02-06T21:48:01.720Z,1.08
2019-02-06T21:53:04.049Z,1.16
2019-02-06T21:58:06.016Z,1.00
2019-02-06T22:03:10.771Z,0.86
2019-02-06T22:08:13.211Z,0.94
2019-02-06T22:13:15.315Z,0.89
2019-02-06T22:18:17.471Z,0.83
2019-02-06T22:23:19.483Z,0.89
2019-02-06T22:28:21.692Z,0.82
2019-02-06T22:33:23.997Z,0.75
2019-02-06T22:38:26.054Z,0.69
2019-02-06T22:43:28.104Z,0.68
2019-02-06T22:48:30.129Z,0.72
2019-02-06T22:53:32.202Z,0.71
2019-02-06T22:58:34.548Z,0.70
2019-02-06T23:03:41.778Z,0.59
2019-02-06T23:08:43.872Z,0.66
2019-02-06T23:13:45.982Z,0.59
2019-02-06T23:18:48.216Z,0.40
2019-02-06T23:23:50.565Z,0.49
2019-02-06T23:28:52.711Z,0.49
2019-02-06T23:33:54.797Z,0.54
2019-02-06T23:38:56.891Z,0.41
2019-02-06T23:43:59.261Z,0.25
2019-02-06T23:49:01.561Z,0.32
2019-02-06T23:54:04.080Z,0.39
2019-02-06T23:59:06.161Z,0.39
